createdAt,value
2023-04-26T00:00:26.461Z,48.66
2023-04-26T00:01:29.562Z,48.73
2023-04-26T00:02:33.074Z,48.79
2023-04-26T00:03:35.744Z,48.77
2023-04-26T00:04:39.330Z,48.71
2023-04-26T00:05:41.811Z,48.82
2023-04-26T00:06:44.165Z,48.81
2023-04-26T00:07:46.815Z,48.90
2023-04-26T00:08:49.188Z,48.79
2023-04-26T00:09:54.699Z,48.88
2023-04-26T00:10:57.195Z,48.87
2023-04-26T00:11:59.688Z,48.89
2023-04-26T00:13:01.947Z,48.91
2023-04-26T00:14:04.232Z,48.91
2023-04-26T00:15:07.732Z,49.04
2023-04-26T00:16:10.007Z,48.89
2023-04-26T00:17:12.622Z,49.09
2023-04-26T00:18:14.934Z,49.07
2023-04-26T00:19:20.113Z,49.13
2023-04-26T00:20:22.405Z,49.17
2023-04-26T00:21:24.664Z,49.15
2023-04-26T00:22:26.952Z,49.15
2023-04-26T00:23:30.562Z,49.11
2023-04-26T00:24:34.724Z,49.17
2023-04-26T00:25:37.764Z,49.27
2023-04-26T00:26:40.081Z,49.33
2023-04-26T00:27:42.358Z,49.28
2023-04-26T00:28:44.574Z,49.21
2023-04-26T00:29:46.946Z,49.25
2023-04-26T00:30:49.252Z,49.36
2023-04-26T00:31:51.809Z,49.33
2023-04-26T00:32:54.087Z,49.36
2023-04-26T00:33:56.541Z,49.42
2023-04-26T00:34:58.803Z,49.61
2023-04-26T00:36:01.065Z,49.51
2023-04-26T00:37:05.107Z,49.57
2023-04-26T00:38:09.061Z,49.51
2023-04-26T00:39:11.403Z,49.63
2023-04-26T00:40:14.157Z,49.73
2023-04-26T00:41:17.003Z,49.60
2023-04-26T00:42:19.691Z,49.68
2023-04-26T00:43:22.020Z,49.70
2023-04-26T00:44:24.384Z,49.78
2023-04-26T00:45:27.279Z,49.80
2023-04-26T00:46:31.218Z,49.81
2023-04-26T00:47:33.985Z,49.84
2023-04-26T00:48:37.627Z,49.78
2023-04-26T00:49:40.899Z,49.79
2023-04-26T00:50:43.522Z,49.82
2023-04-26T00:51:47.678Z,49.90
2023-04-26T00:52:50.757Z,49.98
2023-04-26T00:53:53.670Z,49.96
2023-04-26T00:54:56.729Z,49.87
2023-04-26T00:55:59.424Z,49.89
2023-04-26T00:57:02.587Z,49.99
2023-04-26T00:58:04.934Z,49.90
2023-04-26T00:59:07.504Z,49.98
2023-04-26T01:00:10.470Z,50.04
2023-04-26T01:01:13.613Z,50.04
2023-04-26T01:02:17.830Z,49.99
2023-04-26T01:03:20.507Z,50.04
2023-04-26T01:04:26.482Z,50.14
2023-04-26T01:05:28.945Z,50.07
2023-04-26T01:06:34.806Z,50.13
2023-04-26T01:07:38.838Z,50.26
2023-04-26T01:08:41.727Z,50.10
2023-04-26T01:09:44.676Z,50.28
2023-04-26T01:10:51.041Z,50.33
2023-04-26T01:11:54.017Z,50.33
2023-04-26T01:12:58.126Z,50.30
2023-04-26T01:14:01.115Z,50.50
2023-04-26T01:15:04.180Z,50.43
2023-04-26T01:16:08.310Z,50.59
2023-04-26T01:17:10.667Z,50.58
2023-04-26T01:18:15.556Z,50.52
2023-04-26T01:19:18.505Z,50.62
2023-04-26T01:20:21.416Z,50.59
2023-04-26T01:21:25.215Z,50.76
2023-04-26T01:22:28.764Z,50.76
2023-04-26T01:23:32.016Z,50.85
2023-04-26T01:24:36.362Z,50.87
2023-04-26T01:25:39.551Z,50.95
2023-04-26T01:26:48.229Z,51.00
2023-04-26T01:27:51.497Z,50.96
2023-04-26T01:28:55.224Z,50.99
2023-04-26T01:29:57.459Z,51.21
2023-04-26T01:30:59.842Z,50.98
2023-04-26T01:32:02.291Z,51.10
2023-04-26T01:33:04.645Z,51.21
2023-04-26T01:34:06.925Z,51.03
2023-04-26T01:35:09.633Z,51.15
2023-04-26T01:36:11.943Z,51.20
2023-04-26T01:37:14.317Z,51.18
2023-04-26T01:38:18.123Z,51.33
2023-04-26T01:39:20.980Z,51.32
2023-04-26T01:40:25.924Z,51.32
2023-04-26T01:41:28.234Z,51.40
2023-04-26T01:42:31.563Z,51.48
2023-04-26T01:43:37.167Z,51.33
2023-04-26T01:44:40.125Z,51.35
2023-04-26T01:45:42.398Z,51.35
2023-04-26T01:47:03.016Z,51.46
2023-04-26T01:48:06.836Z,51.60
2023-04-26T01:49:09.127Z,51.54
2023-04-26T01:50:11.746Z,51.61
2023-04-26T01:51:15.611Z,51.58
2023-04-26T01:52:18.130Z,51.64
2023-04-26T01:53:21.581Z,51.63
2023-04-26T01:54:23.812Z,51.68
2023-04-26T01:55:26.124Z,51.65
2023-04-26T01:56:28.422Z,51.67
2023-04-26T01:57:31.630Z,51.75
2023-04-26T01:58:33.912Z,51.67
2023-04-26T01:59:36.840Z,51.86
2023-04-26T02:00:39.227Z,51.78
2023-04-26T02:01:42.490Z,51.76
2023-04-26T02:02:46.688Z,51.98
2023-04-26T02:03:49.740Z,51.90
2023-04-26T02:04:55.077Z,51.87
2023-04-26T02:06:00.284Z,51.88
2023-04-26T02:07:03.740Z,51.89
2023-04-26T02:08:06.379Z,51.94
2023-04-26T02:09:09.994Z,51.91
2023-04-26T02:10:16.028Z,52.02
2023-04-26T02:11:18.500Z,52.21
2023-04-26T02:12:20.882Z,52.14
2023-04-26T02:13:23.243Z,52.17
2023-04-26T02:14:25.851Z,52.20
2023-04-26T02:15:28.070Z,52.17
2023-04-26T02:16:32.208Z,52.17
2023-04-26T02:17:34.706Z,52.25
2023-04-26T02:18:37.033Z,52.32
2023-04-26T02:19:39.857Z,52.33
2023-04-26T02:20:46.128Z,52.30
2023-04-26T02:21:56.408Z,52.28
2023-04-26T02:22:58.786Z,52.39
2023-04-26T02:24:01.144Z,52.40
2023-04-26T02:25:03.758Z,52.42
2023-04-26T02:26:06.274Z,52.44
2023-04-26T02:27:08.523Z,52.41
2023-04-26T02:28:10.796Z,52.42
2023-04-26T02:29:13.095Z,52.41
2023-04-26T02:30:15.666Z,52.48
2023-04-26T02:31:19.628Z,52.68
2023-04-26T02:32:23.374Z,52.65
2023-04-26T02:33:26.043Z,52.62
2023-04-26T02:34:28.341Z,52.74
2023-04-26T02:35:30.847Z,52.59
2023-04-26T02:36:34.050Z,52.87
2023-04-26T02:37:37.530Z,52.67
2023-04-26T02:38:39.963Z,52.64
2023-04-26T02:39:43.196Z,52.80
2023-04-26T02:40:45.831Z,52.76
2023-04-26T02:41:48.792Z,52.85
2023-04-26T02:42:52.247Z,52.80
2023-04-26T02:43:54.488Z,52.86
2023-04-26T02:44:57.828Z,53.03
2023-04-26T02:46:01.474Z,52.89
2023-04-26T02:47:05.540Z,53.09
2023-04-26T02:48:08.218Z,53.07
2023-04-26T02:49:10.728Z,53.00
2023-04-26T02:50:13.021Z,52.94
2023-04-26T02:51:16.223Z,52.89
2023-04-26T02:52:20.776Z,52.91
2023-04-26T02:53:23.527Z,52.80
2023-04-26T02:54:26.158Z,52.84
2023-04-26T02:55:28.548Z,53.01
2023-04-26T02:56:31.586Z,53.01
2023-04-26T02:57:34.016Z,53.05
2023-04-26T02:58:36.342Z,52.90
2023-04-26T02:59:38.595Z,53.17
2023-04-26T03:00:51.227Z,52.94
2023-04-26T03:01:54.019Z,53.08
2023-04-26T03:02:57.249Z,53.00
2023-04-26T03:03:59.985Z,53.13
2023-04-26T03:05:02.916Z,52.96
2023-04-26T03:06:06.541Z,53.15
2023-04-26T03:07:08.966Z,53.21
2023-04-26T03:08:12.823Z,53.21
2023-04-26T03:09:15.056Z,53.21
2023-04-26T03:10:17.613Z,53.25
2023-04-26T03:11:19.920Z,53.32
2023-04-26T03:12:22.168Z,53.31
2023-04-26T03:13:24.957Z,53.28
2023-04-26T03:14:29.216Z,53.24
2023-04-26T03:15:32.280Z,53.25
2023-04-26T03:16:42.693Z,53.28
2023-04-26T03:17:45.030Z,53.33
2023-04-26T03:18:48.025Z,53.34
2023-04-26T03:19:50.327Z,53.36
2023-04-26T03:20:53.511Z,53.36
2023-04-26T03:21:58.024Z,53.38
2023-04-26T03:23:00.319Z,53.29
2023-04-26T03:24:02.644Z,53.46
2023-04-26T03:25:06.711Z,53.21
2023-04-26T03:26:09.156Z,53.31
2023-04-26T03:27:11.509Z,53.33
2023-04-26T03:28:14.402Z,53.45
2023-04-26T03:29:17.461Z,53.50
2023-04-26T03:30:19.750Z,53.55
2023-04-26T03:31:23.079Z,53.60
2023-04-26T03:32:25.931Z,53.49
2023-04-26T03:33:28.200Z,53.62
2023-04-26T03:34:30.536Z,53.54
2023-04-26T03:35:33.066Z,53.69
2023-04-26T03:36:36.006Z,53.62
2023-04-26T03:37:40.937Z,53.64
2023-04-26T03:38:46.869Z,53.64
2023-04-26T03:39:52.747Z,53.57
2023-04-26T03:40:57.267Z,53.68
2023-04-26T03:42:02.205Z,53.56
2023-04-26T03:43:04.482Z,53.62
2023-04-26T03:44:06.968Z,53.69
2023-04-26T03:45:10.802Z,53.60
2023-04-26T03:46:13.947Z,53.64
2023-04-26T03:47:16.212Z,53.81
2023-04-26T03:48:18.505Z,53.58
2023-04-26T03:49:21.333Z,53.72
2023-04-26T03:50:24.018Z,53.75
2023-04-26T03:51:28.451Z,53.83
2023-04-26T03:52:31.099Z,53.93
2023-04-26T03:53:33.672Z,53.87
2023-04-26T03:54:36.538Z,53.79
2023-04-26T03:55:39.203Z,53.90
2023-04-26T03:56:41.696Z,53.85
2023-04-26T03:57:45.099Z,53.94
2023-04-26T03:58:47.482Z,53.75
2023-04-26T03:59:51.140Z,53.85
2023-04-26T04:00:56.881Z,53.80
2023-04-26T04:01:59.298Z,53.90
2023-04-26T04:03:01.902Z,53.97
2023-04-26T04:04:04.393Z,54.04
2023-04-26T04:05:07.344Z,53.87
2023-04-26T04:06:09.773Z,54.04
2023-04-26T04:07:12.039Z,54.11
2023-04-26T04:08:15.832Z,54.05
2023-04-26T04:09:19.354Z,53.94
2023-04-26T04:10:23.324Z,54.08
2023-04-26T04:11:25.641Z,54.14
2023-04-26T04:12:27.884Z,54.07
2023-04-26T04:13:30.139Z,54.14
2023-04-26T04:14:32.665Z,54.22
2023-04-26T04:15:35.708Z,54.07
2023-04-26T04:16:38.118Z,53.98
2023-04-26T04:17:40.436Z,54.06
2023-04-26T04:18:46.003Z,54.06
2023-04-26T04:19:48.890Z,54.23
2023-04-26T04:20:51.600Z,54.20
2023-04-26T04:21:53.890Z,54.31
2023-04-26T04:22:56.432Z,54.13
2023-04-26T04:23:58.815Z,54.28
2023-04-26T04:25:01.118Z,54.22
2023-04-26T04:26:03.460Z,54.40
2023-04-26T04:27:05.872Z,54.26
2023-04-26T04:28:08.802Z,54.40
2023-04-26T04:29:11.563Z,54.41
2023-04-26T04:30:14.756Z,54.45
2023-04-26T04:31:17.852Z,54.41
2023-04-26T04:32:20.431Z,54.25
2023-04-26T04:33:22.994Z,54.31
2023-04-26T04:34:26.316Z,54.36
2023-04-26T04:35:33.785Z,54.28
2023-04-26T04:36:39.213Z,54.42
2023-04-26T04:37:41.770Z,54.49
2023-04-26T04:38:44.517Z,54.49
2023-04-26T04:39:47.557Z,54.42
2023-04-26T04:40:50.556Z,54.51
2023-04-26T04:41:54.630Z,54.56
2023-04-26T04:42:57.083Z,54.62
2023-04-26T04:44:01.969Z,54.57
2023-04-26T04:45:05.369Z,54.61
2023-04-26T04:46:10.078Z,54.57
2023-04-26T04:47:15.433Z,54.51
2023-04-26T04:48:19.740Z,54.48
2023-04-26T04:49:22.366Z,54.76
2023-04-26T04:50:24.707Z,54.73
2023-04-26T04:51:28.283Z,54.77
2023-04-26T04:52:33.312Z,54.75
2023-04-26T04:53:36.029Z,54.74
2023-04-26T04:54:38.345Z,54.72
2023-04-26T04:55:42.296Z,54.48
2023-04-26T04:56:46.139Z,54.47
2023-04-26T04:57:50.146Z,54.49
2023-04-26T04:58:52.756Z,54.43
2023-04-26T04:59:58.361Z,54.28
2023-04-26T05:01:01.540Z,54.18
2023-04-26T05:02:17.820Z,54.20
2023-04-26T05:03:20.463Z,54.09
2023-04-26T05:04:23.353Z,53.96
2023-04-26T05:05:25.976Z,53.97
2023-04-26T05:06:28.500Z,53.73
2023-04-26T05:07:35.063Z,53.59
2023-04-26T05:08:37.911Z,53.55
2023-04-26T05:09:44.364Z,53.41
2023-04-26T05:10:47.043Z,53.22
2023-04-26T05:11:49.352Z,53.11
2023-04-26T05:12:51.873Z,53.00
2023-04-26T05:13:54.547Z,52.84
2023-04-26T05:14:57.053Z,52.67
2023-04-26T05:15:59.324Z,52.54
2023-04-26T05:17:01.944Z,52.47
2023-04-26T05:18:04.491Z,52.23
2023-04-26T05:19:09.152Z,52.21
2023-04-26T05:20:12.597Z,52.10
2023-04-26T05:21:15.020Z,51.91
2023-04-26T05:22:19.010Z,51.69
2023-04-26T05:23:21.845Z,51.60
2023-04-26T05:24:24.315Z,51.44
2023-04-26T05:25:27.118Z,51.28
2023-04-26T05:26:47.548Z,51.06
2023-04-26T05:28:17.126Z,50.62
2023-04-26T05:29:45.967Z,50.20
2023-04-26T05:31:12.388Z,50.08
2023-04-26T05:32:25.537Z,49.91
2023-04-26T05:33:38.137Z,49.68
2023-04-26T05:35:01.631Z,49.44
2023-04-26T05:36:07.281Z,49.38
2023-04-26T05:37:09.661Z,49.18
2023-04-26T05:38:12.058Z,48.96
2023-04-26T05:39:14.308Z,48.75
2023-04-26T05:40:16.892Z,48.35
2023-04-26T05:41:19.180Z,48.38
2023-04-26T05:42:21.545Z,48.06
2023-04-26T05:43:24.310Z,47.99
2023-04-26T05:44:26.967Z,47.82
2023-04-26T05:45:29.720Z,47.46
2023-04-26T05:46:32.068Z,46.99
2023-04-26T05:47:34.393Z,46.89
2023-04-26T05:48:36.706Z,46.67
2023-04-26T05:49:38.964Z,46.29
2023-04-26T05:50:41.262Z,46.10
2023-04-26T05:51:44.455Z,45.94
2023-04-26T05:52:47.067Z,46.05
2023-04-26T05:53:49.489Z,45.68
2023-04-26T05:54:52.801Z,45.80
2023-04-26T05:55:55.066Z,45.44
2023-04-26T05:56:59.168Z,45.07
2023-04-26T05:58:02.569Z,44.93
2023-04-26T05:59:06.356Z,44.66
2023-04-26T06:00:10.306Z,44.45
2023-04-26T06:01:20.133Z,44.38
2023-04-26T06:02:22.480Z,44.14
2023-04-26T06:03:25.153Z,44.01
2023-04-26T06:04:28.258Z,43.58
2023-04-26T06:05:40.083Z,43.22
2023-04-26T06:06:42.746Z,42.74
2023-04-26T06:07:45.621Z,42.41
2023-04-26T06:08:47.877Z,42.41
2023-04-26T06:09:50.148Z,42.52
2023-04-26T06:10:52.459Z,42.27
2023-04-26T06:11:54.855Z,42.02
2023-04-26T06:12:57.345Z,41.58
2023-04-26T06:14:01.985Z,41.33
2023-04-26T06:15:05.539Z,41.60
2023-04-26T06:16:09.412Z,41.23
2023-04-26T06:17:11.885Z,41.28
2023-04-26T06:18:14.426Z,41.23
2023-04-26T06:19:16.737Z,40.95
2023-04-26T06:20:19.200Z,40.57
2023-04-26T06:21:21.513Z,40.46
2023-04-26T06:22:24.116Z,40.58
2023-04-26T06:23:26.337Z,40.38
2023-04-26T06:24:28.680Z,40.06
2023-04-26T06:25:31.050Z,40.19
2023-04-26T06:26:33.413Z,39.64
2023-04-26T06:27:35.902Z,39.66
2023-04-26T06:28:39.905Z,39.54
2023-04-26T06:29:43.970Z,39.23
2023-04-26T06:30:46.481Z,39.29
2023-04-26T06:31:49.980Z,39.38
2023-04-26T06:32:54.489Z,39.29
2023-04-26T06:33:56.741Z,39.39
2023-04-26T06:34:59.435Z,39.02
2023-04-26T06:36:01.704Z,39.08
2023-04-26T06:37:05.610Z,38.94
2023-04-26T06:38:08.723Z,39.07
2023-04-26T06:39:12.034Z,39.22
2023-04-26T06:40:16.071Z,39.37
2023-04-26T06:41:18.804Z,39.58
2023-04-26T06:42:23.986Z,39.42
2023-04-26T06:43:49.380Z,39.30
2023-04-26T06:44:56.307Z,39.09
2023-04-26T06:45:58.762Z,39.01
2023-04-26T06:47:01.079Z,38.67
2023-04-26T06:48:05.432Z,38.60
2023-04-26T06:49:08.776Z,38.62
2023-04-26T06:50:11.619Z,38.72
2023-04-26T06:51:14.116Z,38.59
2023-04-26T06:52:16.457Z,38.58
2023-04-26T06:53:19.495Z,38.61
2023-04-26T06:54:29.185Z,38.08
2023-04-26T06:55:32.886Z,37.67
2023-04-26T06:56:36.654Z,37.82
2023-04-26T06:57:39.260Z,37.84
2023-04-26T06:58:59.208Z,37.84
2023-04-26T07:00:01.619Z,37.65
2023-04-26T07:01:03.978Z,37.52
2023-04-26T07:02:07.170Z,37.18
2023-04-26T07:03:09.974Z,36.89
2023-04-26T07:04:12.746Z,36.38
2023-04-26T07:05:15.733Z,36.36
2023-04-26T07:06:18.216Z,36.59
2023-04-26T07:07:20.675Z,36.58
2023-04-26T07:08:22.918Z,36.59
2023-04-26T07:09:25.202Z,37.04
2023-04-26T07:10:27.931Z,36.83
2023-04-26T07:11:30.922Z,36.85
2023-04-26T07:12:33.475Z,36.54
2023-04-26T07:13:35.751Z,36.42
2023-04-26T07:14:41.148Z,36.43
2023-04-26T07:15:45.059Z,36.48
2023-04-26T07:16:47.393Z,36.53
2023-04-26T07:17:49.876Z,36.44
2023-04-26T07:18:53.194Z,36.82
2023-04-26T07:19:56.252Z,36.44
2023-04-26T07:20:58.601Z,36.34
2023-04-26T07:22:01.531Z,36.26
2023-04-26T07:23:03.829Z,35.46
2023-04-26T07:24:07.219Z,35.81
2023-04-26T07:25:10.054Z,35.98
2023-04-26T07:26:12.517Z,35.67
2023-04-26T07:27:14.789Z,35.61
2023-04-26T07:28:17.024Z,35.77
2023-04-26T07:29:19.312Z,35.75
2023-04-26T07:30:21.557Z,35.34
2023-04-26T07:31:23.914Z,35.28
2023-04-26T07:32:26.316Z,35.28
2023-04-26T07:33:28.716Z,35.33
2023-04-26T07:34:31.164Z,35.41
2023-04-26T07:35:35.622Z,35.31
2023-04-26T07:36:37.958Z,35.46
2023-04-26T07:37:40.267Z,35.19
2023-04-26T07:38:43.012Z,35.13
2023-04-26T07:39:45.654Z,35.22
2023-04-26T07:40:47.884Z,35.32
2023-04-26T07:41:50.473Z,35.46
2023-04-26T07:42:53.829Z,35.24
2023-04-26T07:43:56.118Z,35.31
2023-04-26T07:44:58.402Z,35.34
2023-04-26T07:46:03.884Z,35.14
2023-04-26T07:47:11.554Z,35.49
2023-04-26T07:48:13.835Z,35.80
2023-04-26T07:49:17.476Z,36.08
2023-04-26T07:50:21.102Z,36.23
2023-04-26T07:51:23.329Z,36.28
2023-04-26T07:52:25.637Z,36.22
2023-04-26T07:53:27.999Z,35.97
2023-04-26T07:54:30.301Z,35.63
2023-04-26T07:55:32.564Z,35.83
2023-04-26T07:56:35.169Z,35.82
2023-04-26T07:57:39.086Z,35.58
2023-04-26T07:58:43.966Z,35.46
2023-04-26T07:59:46.347Z,35.03
2023-04-26T08:00:48.611Z,34.78
2023-04-26T08:01:50.964Z,34.85
2023-04-26T08:02:53.428Z,34.58
2023-04-26T08:03:56.514Z,34.77
2023-04-26T08:04:59.294Z,34.59
2023-04-26T08:06:02.394Z,34.67
2023-04-26T08:07:04.865Z,35.02
2023-04-26T08:08:07.664Z,34.65
2023-04-26T08:09:10.222Z,34.43
2023-04-26T08:10:12.721Z,34.46
2023-04-26T08:11:15.040Z,34.44
2023-04-26T08:12:17.349Z,34.52
2023-04-26T08:13:19.902Z,34.22
2023-04-26T08:14:23.299Z,34.05
2023-04-26T08:15:25.684Z,34.03
2023-04-26T08:16:28.116Z,34.05
2023-04-26T08:17:32.353Z,34.01
2023-04-26T08:18:34.654Z,34.01
2023-04-26T08:19:37.235Z,34.07
2023-04-26T08:20:39.730Z,33.86
2023-04-26T08:21:42.287Z,33.99
2023-04-26T08:22:44.619Z,34.22
2023-04-26T08:23:48.237Z,34.36
2023-04-26T08:24:51.889Z,34.55
2023-04-26T08:25:54.485Z,34.64
2023-04-26T08:26:58.738Z,34.94
2023-04-26T08:28:01.983Z,35.04
2023-04-26T08:29:04.333Z,35.67
2023-04-26T08:30:07.395Z,35.37
2023-04-26T08:31:10.443Z,34.96
2023-04-26T08:32:12.900Z,35.06
2023-04-26T08:33:15.201Z,35.31
2023-04-26T08:34:17.857Z,35.14
2023-04-26T08:35:20.120Z,35.50
2023-04-26T08:36:22.468Z,35.78
2023-04-26T08:37:24.820Z,35.71
2023-04-26T08:38:27.159Z,35.90
2023-04-26T08:39:29.439Z,35.70
2023-04-26T08:40:31.846Z,35.55
2023-04-26T08:41:37.698Z,35.28
2023-04-26T08:42:44.013Z,35.28
2023-04-26T08:43:46.425Z,35.46
2023-04-26T08:44:49.419Z,35.54
2023-04-26T08:45:51.951Z,35.49
2023-04-26T08:47:06.197Z,35.13
2023-04-26T08:48:14.973Z,34.87
2023-04-26T08:49:43.921Z,35.04
2023-04-26T08:50:48.812Z,34.64
2023-04-26T08:51:51.707Z,34.40
2023-04-26T08:52:54.028Z,34.13
2023-04-26T08:53:58.682Z,33.57
2023-04-26T08:55:01.688Z,33.65
2023-04-26T08:56:05.124Z,33.91
2023-04-26T08:57:08.274Z,33.80
2023-04-26T08:58:11.983Z,33.94
2023-04-26T08:59:15.152Z,33.77
2023-04-26T09:00:18.483Z,33.56
2023-04-26T09:01:21.857Z,33.56
2023-04-26T09:02:24.944Z,33.77
2023-04-26T09:03:28.376Z,33.73
2023-04-26T09:04:31.915Z,34.13
2023-04-26T09:05:34.923Z,34.38
2023-04-26T09:06:38.092Z,34.26
2023-04-26T09:07:44.996Z,34.40
2023-04-26T09:08:48.042Z,34.02
2023-04-26T09:09:54.293Z,34.05
2023-04-26T09:10:56.787Z,34.02
2023-04-26T09:12:01.767Z,33.54
2023-04-26T09:13:04.055Z,33.63
2023-04-26T09:14:06.615Z,33.59
2023-04-26T09:15:09.708Z,33.61
2023-04-26T09:16:12.056Z,34.04
2023-04-26T09:17:34.983Z,34.68
2023-04-26T09:18:49.911Z,34.87
2023-04-26T09:19:52.351Z,34.96
2023-04-26T09:21:09.026Z,35.34
2023-04-26T09:22:11.429Z,34.93
2023-04-26T09:23:13.808Z,34.93
2023-04-26T09:24:16.262Z,34.80
2023-04-26T09:25:26.609Z,34.93
2023-04-26T09:26:28.979Z,34.71
2023-04-26T09:27:35.711Z,33.93
2023-04-26T09:28:38.055Z,33.75
2023-04-26T09:29:41.151Z,33.45
2023-04-26T09:30:43.410Z,33.16
2023-04-26T09:31:49.782Z,32.77
2023-04-26T09:33:06.871Z,33.04
2023-04-26T09:34:11.221Z,33.06
2023-04-26T09:35:31.097Z,33.23
2023-04-26T09:36:33.355Z,32.96
2023-04-26T09:38:44.027Z,32.86
2023-04-26T09:39:46.355Z,32.52
2023-04-26T09:40:50.993Z,32.20
2023-04-26T09:41:53.493Z,31.95
2023-04-26T09:43:01.078Z,31.68
2023-04-26T09:44:03.444Z,31.67
2023-04-26T09:45:06.723Z,31.71
2023-04-26T09:46:09.000Z,31.83
2023-04-26T09:47:12.602Z,31.43
2023-04-26T09:48:23.877Z,31.48
2023-04-26T09:49:27.645Z,31.76
2023-04-26T09:50:32.055Z,31.85
2023-04-26T09:51:34.548Z,31.89
2023-04-26T09:52:44.606Z,31.83
2023-04-26T09:53:50.122Z,31.61
2023-04-26T09:54:54.641Z,31.21
2023-04-26T09:55:58.649Z,31.44
2023-04-26T09:57:01.904Z,31.49
2023-04-26T09:58:11.211Z,31.62
2023-04-26T09:59:13.629Z,31.59
2023-04-26T10:00:16.436Z,31.33
2023-04-26T10:01:20.227Z,31.49
2023-04-26T10:02:27.561Z,31.18
2023-04-26T10:03:32.571Z,31.34
2023-04-26T10:04:35.163Z,31.70
2023-04-26T10:05:37.987Z,31.56
2023-04-26T10:06:40.332Z,31.41
2023-04-26T10:07:42.732Z,31.43
2023-04-26T10:08:45.670Z,31.38
2023-04-26T10:09:48.960Z,31.36
2023-04-26T10:10:51.688Z,31.39
2023-04-26T10:11:54.608Z,31.94
2023-04-26T10:12:58.421Z,31.99
2023-04-26T10:14:00.870Z,31.88
2023-04-26T10:15:03.857Z,31.96
2023-04-26T10:16:07.221Z,32.27
2023-04-26T10:17:09.756Z,32.12
2023-04-26T10:18:12.123Z,32.56
2023-04-26T10:19:14.692Z,33.14
2023-04-26T10:20:20.808Z,33.26
2023-04-26T10:21:30.389Z,33.17
2023-04-26T10:22:43.641Z,33.04
2023-04-26T10:23:47.470Z,33.03
2023-04-26T10:24:50.902Z,33.03
2023-04-26T10:25:54.902Z,32.85
2023-04-26T10:26:57.748Z,32.83
2023-04-26T10:28:00.098Z,32.79
2023-04-26T10:29:03.476Z,32.60
2023-04-26T10:30:08.289Z,32.47
2023-04-26T10:31:11.173Z,31.95
2023-04-26T10:32:17.582Z,31.81
2023-04-26T10:33:20.707Z,31.98
2023-04-26T10:34:23.312Z,31.86
2023-04-26T10:35:27.118Z,32.13
2023-04-26T10:36:29.516Z,32.07
2023-04-26T10:37:31.851Z,32.22
2023-04-26T10:38:38.513Z,32.53
2023-04-26T10:39:44.945Z,32.84
2023-04-26T10:40:48.045Z,32.71
2023-04-26T10:41:50.435Z,32.38
2023-04-26T10:43:15.213Z,32.37
2023-04-26T10:44:41.029Z,32.52
2023-04-26T10:45:49.519Z,32.29
2023-04-26T10:46:53.017Z,32.38
2023-04-26T10:48:20.862Z,32.37
2023-04-26T10:49:26.467Z,31.83
2023-04-26T10:50:29.364Z,31.94
2023-04-26T10:51:32.056Z,32.11
2023-04-26T10:52:41.881Z,31.98
2023-04-26T10:53:47.011Z,31.75
2023-04-26T10:54:50.737Z,31.87
2023-04-26T10:55:53.750Z,32.24
2023-04-26T10:56:56.433Z,32.15
2023-04-26T10:57:58.791Z,31.77
2023-04-26T11:00:27.914Z,31.77
2023-04-26T11:01:32.266Z,31.71
2023-04-26T11:02:53.622Z,32.07
2023-04-26T11:03:59.247Z,32.13
2023-04-26T11:05:04.532Z,32.10
2023-04-26T11:06:10.874Z,32.22
2023-04-26T11:07:14.218Z,32.41
2023-04-26T11:08:18.495Z,32.75
2023-04-26T11:09:40.910Z,33.07
2023-04-26T11:10:46.372Z,33.03
2023-04-26T11:11:53.633Z,33.23
2023-04-26T11:13:06.921Z,32.89
2023-04-26T11:14:09.300Z,32.81
2023-04-26T11:15:12.938Z,32.69
2023-04-26T11:16:16.864Z,32.58
2023-04-26T11:17:20.548Z,32.79
2023-04-26T11:18:24.016Z,32.80
2023-04-26T11:19:28.223Z,32.97
2023-04-26T11:20:32.574Z,33.01
2023-04-26T11:21:36.757Z,33.16
2023-04-26T11:22:42.242Z,33.17
2023-04-26T11:23:54.073Z,32.91
2023-04-26T11:25:00.704Z,32.96
2023-04-26T11:26:04.782Z,33.12
2023-04-26T11:27:12.253Z,33.42
2023-04-26T11:28:15.004Z,33.43
2023-04-26T11:29:22.480Z,33.41
2023-04-26T11:30:25.023Z,33.06
2023-04-26T11:31:30.400Z,32.97
2023-04-26T11:32:33.804Z,32.87
2023-04-26T11:33:36.192Z,33.05
2023-04-26T11:34:42.094Z,33.09
2023-04-26T11:35:44.740Z,33.01
2023-04-26T11:36:47.305Z,33.19
2023-04-26T11:37:52.065Z,33.16
2023-04-26T11:38:54.598Z,33.12
2023-04-26T11:39:57.906Z,33.08
2023-04-26T11:41:02.462Z,33.14
2023-04-26T11:42:08.833Z,33.11
2023-04-26T11:43:11.989Z,33.09
2023-04-26T11:44:18.799Z,33.26
2023-04-26T11:45:21.690Z,33.13
2023-04-26T11:46:25.530Z,33.01
2023-04-26T11:47:31.375Z,33.09
2023-04-26T11:48:35.617Z,32.85
2023-04-26T11:49:38.264Z,32.80
2023-04-26T11:50:41.422Z,33.10
2023-04-26T11:51:45.084Z,33.33
2023-04-26T11:52:47.508Z,33.64
2023-04-26T11:53:51.942Z,33.73
2023-04-26T11:55:07.957Z,33.84
2023-04-26T11:56:17.940Z,33.72
2023-04-26T11:57:20.847Z,33.64
2023-04-26T11:58:24.601Z,33.51
2023-04-26T11:59:29.362Z,33.77
2023-04-26T12:00:31.754Z,33.78
2023-04-26T12:01:34.081Z,33.48
2023-04-26T12:02:37.150Z,33.30
2023-04-26T12:03:41.462Z,33.42
2023-04-26T12:04:45.546Z,33.04
2023-04-26T12:05:55.580Z,32.62
2023-04-26T12:06:58.643Z,32.55
2023-04-26T12:08:01.061Z,32.47
2023-04-26T12:09:06.126Z,32.42
2023-04-26T12:10:15.153Z,32.47
2023-04-26T12:11:20.200Z,32.48
2023-04-26T12:12:23.769Z,32.69
2023-04-26T12:13:26.464Z,32.75
2023-04-26T12:14:40.548Z,33.13
2023-04-26T12:15:42.933Z,33.07
2023-04-26T12:16:47.251Z,33.19
2023-04-26T12:17:58.597Z,33.53
2023-04-26T12:19:05.856Z,33.47
2023-04-26T12:20:11.777Z,33.87
2023-04-26T12:21:16.608Z,33.87
2023-04-26T12:22:22.733Z,33.69
2023-04-26T12:23:25.538Z,33.90
2023-04-26T12:24:48.435Z,34.05
2023-04-26T12:25:55.808Z,33.92
2023-04-26T12:27:00.228Z,34.08
2023-04-26T12:28:12.830Z,34.43
2023-04-26T12:29:16.882Z,34.43
2023-04-26T12:30:19.262Z,34.09
2023-04-26T12:31:37.171Z,33.81
2023-04-26T12:32:39.786Z,34.00
2023-04-26T12:33:42.098Z,33.95
2023-04-26T12:34:44.426Z,34.28
2023-04-26T12:35:47.046Z,34.05
2023-04-26T12:36:52.220Z,33.50
2023-04-26T12:37:57.056Z,33.46
2023-04-26T12:39:01.106Z,33.54
2023-04-26T12:40:03.714Z,33.51
2023-04-26T12:41:06.220Z,33.87
2023-04-26T12:42:08.689Z,33.72
2023-04-26T12:43:12.539Z,33.85
2023-04-26T12:44:15.017Z,33.66
2023-04-26T12:45:19.480Z,33.85
2023-04-26T12:46:22.308Z,33.90
2023-04-26T12:47:24.756Z,33.75
2023-04-26T12:48:27.187Z,33.67
2023-04-26T12:49:30.769Z,33.92
2023-04-26T12:50:33.024Z,33.81
2023-04-26T12:51:35.808Z,33.63
2023-04-26T12:52:38.920Z,33.90
2023-04-26T12:53:41.237Z,33.70
2023-04-26T12:54:43.908Z,33.85
2023-04-26T12:55:46.487Z,33.94
2023-04-26T12:56:49.646Z,34.18
2023-04-26T12:57:51.941Z,34.19
2023-04-26T12:58:54.349Z,34.01
2023-04-26T12:59:56.856Z,34.06
2023-04-26T13:00:59.402Z,33.90
2023-04-26T13:02:02.320Z,33.66
2023-04-26T13:03:05.014Z,33.69
2023-04-26T13:04:08.994Z,33.72
2023-04-26T13:05:13.509Z,33.52
2023-04-26T13:06:16.319Z,33.70
2023-04-26T13:07:18.651Z,33.48
2023-04-26T13:08:21.555Z,33.38
2023-04-26T13:09:24.619Z,33.14
2023-04-26T13:10:27.111Z,33.29
2023-04-26T13:11:29.392Z,33.54
2023-04-26T13:12:32.086Z,33.46
2023-04-26T13:13:42.988Z,33.48
2023-04-26T13:14:46.773Z,33.60
2023-04-26T13:15:50.241Z,33.61
2023-04-26T13:16:53.779Z,33.70
2023-04-26T13:17:56.237Z,33.82
2023-04-26T13:18:58.618Z,33.98
2023-04-26T13:20:01.067Z,33.80
2023-04-26T13:21:06.314Z,33.37
2023-04-26T13:22:11.142Z,33.21
2023-04-26T13:23:14.443Z,33.05
2023-04-26T13:24:16.834Z,33.32
2023-04-26T13:25:19.486Z,33.14
2023-04-26T13:26:21.811Z,33.17
2023-04-26T13:27:24.191Z,33.09
2023-04-26T13:28:26.412Z,33.22
2023-04-26T13:29:28.670Z,33.22
2023-04-26T13:30:31.365Z,33.08
2023-04-26T13:31:34.524Z,33.10
2023-04-26T13:32:37.438Z,33.18
2023-04-26T13:33:39.675Z,33.17
2023-04-26T13:34:41.907Z,33.00
2023-04-26T13:35:45.417Z,33.19
2023-04-26T13:36:49.280Z,32.92
2023-04-26T13:37:51.591Z,33.11
2023-04-26T13:38:53.838Z,33.14
2023-04-26T13:39:56.169Z,33.14
2023-04-26T13:40:58.757Z,32.99
2023-04-26T13:42:02.177Z,32.77
2023-04-26T13:43:04.508Z,32.83
2023-04-26T13:44:08.299Z,32.97
2023-04-26T13:45:12.300Z,33.04
2023-04-26T13:46:14.981Z,33.00
2023-04-26T13:47:17.883Z,32.73